sensor_id;sensor_type;location;lat;lon;timestamp;P1;durP1;ratioP1;P2;durP2;ratioP2
75603;SDS011;64187;51.010;13.792;2023-02-01T00:02:06;5.05;;;1.98;;
75603;SDS011;64187;51.010;13.792;2023-02-01T00:07:05;5.10;;;2.10;;
75603;SDS011;64187;51.010;13.792;2023-02-01T00:12:05;5.07;;;2.17;;
75603;SDS011;64187;51.010;13.792;2023-02-01T00:17:04;6.47;;;1.80;;
75603;SDS011;64187;51.010;13.792;2023-02-01T00:22:05;4.72;;;2.30;;
75603;SDS011;64187;51.010;13.792;2023-02-01T00:27:03;7.03;;;2.20;;
75603;SDS011;64187;51.010;13.792;2023-02-01T00:32:03;8.10;;;1.95;;
75603;SDS011;64187;51.010;13.792;2023-02-01T00:37:02;5.63;;;2.10;;
75603;SDS011;64187;51.010;13.792;2023-02-01T00:42:00;7.22;;;1.95;;
75603;SDS011;64187;51.010;13.792;2023-02-01T00:47:00;6.57;;;2.30;;
75603;SDS011;64187;51.010;13.792;2023-02-01T00:52:00;5.07;;;1.80;;
75603;SDS011;64187;51.010;13.792;2023-02-01T00:56:59;10.25;;;2.30;;
75603;SDS011;64187;51.010;13.792;2023-02-01T01:01:57;6.22;;;2.08;;
75603;SDS011;64187;51.010;13.792;2023-02-01T01:06:56;10.60;;;1.90;;
75603;SDS011;64187;51.010;13.792;2023-02-01T01:11:55;8.68;;;2.10;;
75603;SDS011;64187;51.010;13.792;2023-02-01T01:16:54;3.55;;;1.70;;
75603;SDS011;64187;51.010;13.792;2023-02-01T01:21:53;6.35;;;1.60;;
75603;SDS011;64187;51.010;13.792;2023-02-01T01:26:52;5.82;;;1.83;;
75603;SDS011;64187;51.010;13.792;2023-02-01T01:31:51;7.50;;;2.03;;
75603;SDS011;64187;51.010;13.792;2023-02-01T01:36:50;4.53;;;1.60;;
75603;SDS011;64187;51.010;13.792;2023-02-01T01:41:49;6.25;;;1.45;;
75603;SDS011;64187;51.010;13.792;2023-02-01T01:46:54;9.35;;;2.15;;
75603;SDS011;64187;51.010;13.792;2023-02-01T01:51:54;6.32;;;1.40;;
75603;SDS011;64187;51.010;13.792;2023-02-01T01:56:58;6.90;;;1.50;;
75603;SDS011;64187;51.010;13.792;2023-02-01T02:02:01;7.40;;;1.65;;
75603;SDS011;64187;51.010;13.792;2023-02-01T02:07:21;5.90;;;1.30;;
75603;SDS011;64187;51.010;13.792;2023-02-01T02:12:24;8.60;;;1.83;;
75603;SDS011;64187;51.010;13.792;2023-02-01T02:28:09;7.47;;;1.58;;
75603;SDS011;64187;51.010;13.792;2023-02-01T02:43:54;4.63;;;1.45;;
75603;SDS011;64187;51.010;13.792;2023-02-01T02:49:20;6.60;;;1.33;;
75603;SDS011;64187;51.010;13.792;2023-02-01T02:54:23;6.18;;;1.75;;
75603;SDS011;64187;51.010;13.792;2023-02-01T02:59:46;6.40;;;1.60;;
75603;SDS011;64187;51.010;13.792;2023-02-01T03:05:05;3.50;;;1.33;;
75603;SDS011;64187;51.010;13.792;2023-02-01T03:10:05;7.20;;;1.13;;
75603;SDS011;64187;51.010;13.792;2023-02-01T03:15:08;6.55;;;1.40;;
75603;SDS011;64187;51.010;13.792;2023-02-01T03:20:13;5.95;;;1.45;;
75603;SDS011;64187;51.010;13.792;2023-02-01T03:25:21;5.75;;;1.25;;
75603;SDS011;64187;51.010;13.792;2023-02-01T03:30:48;6.80;;;1.40;;
75603;SDS011;64187;51.010;13.792;2023-02-01T03:41:11;10.77;;;1.80;;
75603;SDS011;64187;51.010;13.792;2023-02-01T03:46:12;3.33;;;1.30;;
75603;SDS011;64187;51.010;13.792;2023-02-01T03:51:17;5.60;;;2.30;;
75603;SDS011;64187;51.010;13.792;2023-02-01T03:56:19;8.77;;;1.67;;
75603;SDS011;64187;51.010;13.792;2023-02-01T04:01:20;7.55;;;1.33;;
75603;SDS011;64187;51.010;13.792;2023-02-01T04:06:19;7.05;;;2.28;;
75603;SDS011;64187;51.010;13.792;2023-02-01T04:11:19;6.60;;;1.65;;
75603;SDS011;64187;51.010;13.792;2023-02-01T04:16:18;5.78;;;2.08;;
75603;SDS011;64187;51.010;13.792;2023-02-01T04:21:17;5.80;;;1.70;;
75603;SDS011;64187;51.010;13.792;2023-02-01T04:26:16;7.25;;;1.73;;
75603;SDS011;64187;51.010;13.792;2023-02-01T04:31:15;8.15;;;1.73;;
75603;SDS011;64187;51.010;13.792;2023-02-01T04:36:15;5.47;;;1.13;;
75603;SDS011;64187;51.010;13.792;2023-02-01T04:41:18;6.25;;;1.58;;
75603;SDS011;64187;51.010;13.792;2023-02-01T04:46:18;8.27;;;1.80;;
75603;SDS011;64187;51.010;13.792;2023-02-01T04:51:17;7.05;;;1.80;;
75603;SDS011;64187;51.010;13.792;2023-02-01T04:56:16;5.30;;;1.70;;
75603;SDS011;64187;51.010;13.792;2023-02-01T05:01:15;8.20;;;2.05;;
75603;SDS011;64187;51.010;13.792;2023-02-01T05:06:14;11.90;;;1.88;;
75603;SDS011;64187;51.010;13.792;2023-02-01T05:11:13;11.65;;;1.83;;
75603;SDS011;64187;51.010;13.792;2023-02-01T05:16:30;7.78;;;1.75;;
75603;SDS011;64187;51.010;13.792;2023-02-01T05:21:29;8.63;;;1.60;;
75603;SDS011;64187;51.010;13.792;2023-02-01T05:26:28;4.20;;;1.23;;
75603;SDS011;64187;51.010;13.792;2023-02-01T05:31:27;5.65;;;1.40;;
75603;SDS011;64187;51.010;13.792;2023-02-01T05:36:26;6.13;;;1.55;;
75603;SDS011;64187;51.010;13.792;2023-02-01T05:41:25;8.02;;;1.73;;
75603;SDS011;64187;51.010;13.792;2023-02-01T05:46:24;4.65;;;1.48;;
75603;SDS011;64187;51.010;13.792;2023-02-01T05:51:24;8.40;;;1.38;;
75603;SDS011;64187;51.010;13.792;2023-02-01T05:56:22;8.98;;;2.05;;
75603;SDS011;64187;51.010;13.792;2023-02-01T06:01:21;10.02;;;1.30;;
75603;SDS011;64187;51.010;13.792;2023-02-01T06:06:36;7.22;;;1.75;;
75603;SDS011;64187;51.010;13.792;2023-02-01T06:11:38;3.90;;;1.50;;
75603;SDS011;64187;51.010;13.792;2023-02-01T06:16:38;6.65;;;1.83;;
75603;SDS011;64187;51.010;13.792;2023-02-01T06:21:37;6.38;;;1.80;;
75603;SDS011;64187;51.010;13.792;2023-02-01T06:26:36;5.70;;;1.75;;
75603;SDS011;64187;51.010;13.792;2023-02-01T06:31:35;6.47;;;1.85;;
75603;SDS011;64187;51.010;13.792;2023-02-01T06:36:37;5.38;;;1.20;;
75603;SDS011;64187;51.010;13.792;2023-02-01T06:41:36;6.43;;;2.08;;
75603;SDS011;64187;51.010;13.792;2023-02-01T06:46:37;9.05;;;1.90;;
75603;SDS011;64187;51.010;13.792;2023-02-01T06:51:36;7.80;;;2.08;;
75603;SDS011;64187;51.010;13.792;2023-02-01T06:56:35;6.00;;;1.50;;
75603;SDS011;64187;51.010;13.792;2023-02-01T07:01:33;8.82;;;1.90;;
75603;SDS011;64187;51.010;13.792;2023-02-01T07:06:32;7.70;;;2.25;;
75603;SDS011;64187;51.010;13.792;2023-02-01T07:11:31;5.57;;;2.05;;
75603;SDS011;64187;51.010;13.792;2023-02-01T07:16:30;5.43;;;1.50;;
75603;SDS011;64187;51.010;13.792;2023-02-01T07:21:29;6.30;;;1.70;;
75603;SDS011;64187;51.010;13.792;2023-02-01T07:26:28;6.22;;;1.48;;
75603;SDS011;64187;51.010;13.792;2023-02-01T07:31:27;7.18;;;1.92;;
75603;SDS011;64187;51.010;13.792;2023-02-01T07:36:27;4.20;;;2.08;;
75603;SDS011;64187;51.010;13.792;2023-02-01T07:41:26;12.00;;;2.55;;
75603;SDS011;64187;51.010;13.792;2023-02-01T07:46:25;6.75;;;1.95;;
75603;SDS011;64187;51.010;13.792;2023-02-01T07:51:24;7.50;;;2.35;;
75603;SDS011;64187;51.010;13.792;2023-02-01T07:56:24;4.75;;;1.35;;
75603;SDS011;64187;51.010;13.792;2023-02-01T08:01:24;10.68;;;1.83;;
75603;SDS011;64187;51.010;13.792;2023-02-01T08:06:25;5.88;;;1.77;;
75603;SDS011;64187;51.010;13.792;2023-02-01T08:11:25;6.03;;;1.95;;
75603;SDS011;64187;51.010;13.792;2023-02-01T08:16:24;6.55;;;1.80;;
75603;SDS011;64187;51.010;13.792;2023-02-01T08:21:27;8.85;;;1.83;;
75603;SDS011;64187;51.010;13.792;2023-02-01T08:26:35;4.35;;;1.45;;
75603;SDS011;64187;51.010;13.792;2023-02-01T08:31:34;10.35;;;2.38;;
75603;SDS011;64187;51.010;13.792;2023-02-01T08:36:34;5.07;;;1.65;;
75603;SDS011;64187;51.010;13.792;2023-02-01T08:41:33;6.43;;;1.80;;
75603;SDS011;64187;51.010;13.792;2023-02-01T08:46:33;6.30;;;1.88;;
75603;SDS011;64187;51.010;13.792;2023-02-01T08:51:32;7.60;;;1.70;;
75603;SDS011;64187;51.010;13.792;2023-02-01T08:56:31;4.97;;;1.40;;
75603;SDS011;64187;51.010;13.792;2023-02-01T09:01:30;7.45;;;2.40;;
75603;SDS011;64187;51.010;13.792;2023-02-01T09:06:29;5.88;;;1.98;;
75603;SDS011;64187;51.010;13.792;2023-02-01T09:11:28;6.55;;;1.85;;
75603;SDS011;64187;51.010;13.792;2023-02-01T09:16:27;3.25;;;1.60;;
75603;SDS011;64187;51.010;13.792;2023-02-01T09:21:26;11.27;;;1.92;;
75603;SDS011;64187;51.010;13.792;2023-02-01T09:26:25;7.18;;;1.83;;
75603;SDS011;64187;51.010;13.792;2023-02-01T09:31:30;7.25;;;1.63;;
75603;SDS011;64187;51.010;13.792;2023-02-01T09:36:29;6.82;;;1.33;;
75603;SDS011;64187;51.010;13.792;2023-02-01T09:46:46;5.72;;;1.80;;
75603;SDS011;64187;51.010;13.792;2023-02-01T09:51:46;5.40;;;1.95;;
75603;SDS011;64187;51.010;13.792;2023-02-01T09:56:55;5.90;;;1.58;;
75603;SDS011;64187;51.010;13.792;2023-02-01T10:02:02;8.82;;;2.70;;
75603;SDS011;64187;51.010;13.792;2023-02-01T10:07:19;3.83;;;1.45;;
75603;SDS011;64187;51.010;13.792;2023-02-01T10:28:31;3.63;;;1.52;;
75603;SDS011;64187;51.010;13.792;2023-02-01T10:38:45;7.55;;;1.92;;
75603;SDS011;64187;51.010;13.792;2023-02-01T10:43:45;4.57;;;1.30;;
75603;SDS011;64187;51.010;13.792;2023-02-01T10:48:48;5.80;;;1.75;;
75603;SDS011;64187;51.010;13.792;2023-02-01T10:53:53;6.85;;;1.70;;
75603;SDS011;64187;51.010;13.792;2023-02-01T11:04:22;9.18;;;2.42;;
75603;SDS011;64187;51.010;13.792;2023-02-01T11:09:24;5.13;;;1.92;;
75603;SDS011;64187;51.010;13.792;2023-02-01T11:19:23;7.18;;;2.05;;
75603;SDS011;64187;51.010;13.792;2023-02-01T11:24:29;5.85;;;1.75;;
75603;SDS011;64187;51.010;13.792;2023-02-01T11:29:41;3.40;;;1.30;;
75603;SDS011;64187;51.010;13.792;2023-02-01T11:34:44;9.50;;;1.95;;
75603;SDS011;64187;51.010;13.792;2023-02-01T11:50:28;4.55;;;1.15;;
75603;SDS011;64187;51.010;13.792;2023-02-01T12:01:26;5.30;;;1.67;;
75603;SDS011;64187;51.010;13.792;2023-02-01T12:06:18;6.80;;;1.42;;
75603;SDS011;64187;51.010;13.792;2023-02-01T12:32:26;6.35;;;1.27;;
75603;SDS011;64187;51.010;13.792;2023-02-01T12:43:01;6.65;;;1.58;;
75603;SDS011;64187;51.010;13.792;2023-02-01T12:48:05;4.07;;;1.63;;
75603;SDS011;64187;51.010;13.792;2023-02-01T12:53:28;7.70;;;1.83;;
75603;SDS011;64187;51.010;13.792;2023-02-01T12:58:41;4.00;;;1.20;;
75603;SDS011;64187;51.010;13.792;2023-02-01T13:03:52;4.13;;;1.77;;
75603;SDS011;64187;51.010;13.792;2023-02-01T13:09:17;4.28;;;1.70;;
75603;SDS011;64187;51.010;13.792;2023-02-01T13:19:42;6.03;;;1.55;;
75603;SDS011;64187;51.010;13.792;2023-02-01T13:25:04;8.77;;;2.20;;
75603;SDS011;64187;51.010;13.792;2023-02-01T13:30:23;4.65;;;1.30;;
75603;SDS011;64187;51.010;13.792;2023-02-01T13:35:36;9.32;;;1.92;;
75603;SDS011;64187;51.010;13.792;2023-02-01T13:40:49;7.75;;;1.55;;
75603;SDS011;64187;51.010;13.792;2023-02-01T13:46:01;8.68;;;2.05;;
75603;SDS011;64187;51.010;13.792;2023-02-01T13:51:04;5.60;;;1.20;;
75603;SDS011;64187;51.010;13.792;2023-02-01T13:56:06;7.43;;;1.67;;
75603;SDS011;64187;51.010;13.792;2023-02-01T14:11:32;9.20;;;2.15;;
75603;SDS011;64187;51.010;13.792;2023-02-01T14:16:36;3.58;;;1.35;;
75603;SDS011;64187;51.010;13.792;2023-02-01T14:21:46;4.07;;;1.40;;
75603;SDS011;64187;51.010;13.792;2023-02-01T14:26:48;3.70;;;1.38;;
75603;SDS011;64187;51.010;13.792;2023-02-01T14:32:11;5.43;;;1.73;;
75603;SDS011;64187;51.010;13.792;2023-02-01T14:47:40;9.80;;;2.28;;
75603;SDS011;64187;51.010;13.792;2023-02-01T14:52:40;5.38;;;2.13;;
75603;SDS011;64187;51.010;13.792;2023-02-01T14:57:44;4.68;;;1.83;;
75603;SDS011;64187;51.010;13.792;2023-02-01T15:02:47;5.68;;;2.50;;
75603;SDS011;64187;51.010;13.792;2023-02-01T15:07:48;6.18;;;1.67;;
75603;SDS011;64187;51.010;13.792;2023-02-01T15:12:48;7.63;;;1.90;;
75603;SDS011;64187;51.010;13.792;2023-02-01T15:17:52;4.05;;;1.27;;
75603;SDS011;64187;51.010;13.792;2023-02-01T15:27:59;4.38;;;2.00;;
75603;SDS011;64187;51.010;13.792;2023-02-01T15:43:32;4.65;;;2.00;;
75603;SDS011;64187;51.010;13.792;2023-02-01T15:48:51;4.47;;;1.50;;
75603;SDS011;64187;51.010;13.792;2023-02-01T15:53:54;5.95;;;1.85;;
75603;SDS011;64187;51.010;13.792;2023-02-01T15:58:57;4.75;;;2.10;;
75603;SDS011;64187;51.010;13.792;2023-02-01T16:09:12;5.10;;;1.77;;
75603;SDS011;64187;51.010;13.792;2023-02-01T16:14:12;5.68;;;1.85;;
75603;SDS011;64187;51.010;13.792;2023-02-01T16:19:11;7.45;;;2.45;;
75603;SDS011;64187;51.010;13.792;2023-02-01T16:24:10;5.68;;;2.03;;
75603;SDS011;64187;51.010;13.792;2023-02-01T16:29:09;7.50;;;2.72;;
75603;SDS011;64187;51.010;13.792;2023-02-01T16:34:11;7.82;;;2.90;;
75603;SDS011;64187;51.010;13.792;2023-02-01T16:39:15;6.18;;;2.67;;
75603;SDS011;64187;51.010;13.792;2023-02-01T16:44:14;9.55;;;2.80;;
75603;SDS011;64187;51.010;13.792;2023-02-01T16:49:20;6.70;;;2.83;;
75603;SDS011;64187;51.010;13.792;2023-02-01T16:59:22;7.50;;;2.38;;
75603;SDS011;64187;51.010;13.792;2023-02-01T17:04:21;6.35;;;2.20;;
75603;SDS011;64187;51.010;13.792;2023-02-01T17:09:20;7.30;;;2.50;;
75603;SDS011;64187;51.010;13.792;2023-02-01T17:14:20;3.88;;;2.15;;
75603;SDS011;64187;51.010;13.792;2023-02-01T17:19:20;2.97;;;1.02;;
75603;SDS011;64187;51.010;13.792;2023-02-01T17:24:24;1.02;;;0.55;;
75603;SDS011;64187;51.010;13.792;2023-02-01T17:29:34;1.15;;;0.40;;
75603;SDS011;64187;51.010;13.792;2023-02-01T17:34:33;1.77;;;0.50;;
75603;SDS011;64187;51.010;13.792;2023-02-01T17:39:33;1.48;;;0.50;;
75603;SDS011;64187;51.010;13.792;2023-02-01T17:44:51;1.65;;;0.63;;
75603;SDS011;64187;51.010;13.792;2023-02-01T17:49:54;1.48;;;0.60;;
75603;SDS011;64187;51.010;13.792;2023-02-01T17:54:54;2.33;;;0.50;;
75603;SDS011;64187;51.010;13.792;2023-02-01T17:59:53;2.33;;;0.57;;
75603;SDS011;64187;51.010;13.792;2023-02-01T18:04:52;1.65;;;0.68;;
75603;SDS011;64187;51.010;13.792;2023-02-01T18:09:51;3.72;;;0.80;;
75603;SDS011;64187;51.010;13.792;2023-02-01T18:14:50;2.05;;;0.40;;
75603;SDS011;64187;51.010;13.792;2023-02-01T18:19:49;8.13;;;0.90;;
75603;SDS011;64187;51.010;13.792;2023-02-01T18:24:48;0.50;;;0.40;;
75603;SDS011;64187;51.010;13.792;2023-02-01T18:29:46;4.32;;;0.65;;
75603;SDS011;64187;51.010;13.792;2023-02-01T18:34:45;2.63;;;0.60;;
75603;SDS011;64187;51.010;13.792;2023-02-01T18:39:47;3.38;;;0.55;;
75603;SDS011;64187;51.010;13.792;2023-02-01T18:44:47;4.57;;;0.60;;
75603;SDS011;64187;51.010;13.792;2023-02-01T18:49:46;3.83;;;0.80;;
75603;SDS011;64187;51.010;13.792;2023-02-01T18:54:45;3.63;;;0.60;;
75603;SDS011;64187;51.010;13.792;2023-02-01T18:59:57;2.30;;;0.70;;
75603;SDS011;64187;51.010;13.792;2023-02-01T19:04:55;2.50;;;0.70;;
75603;SDS011;64187;51.010;13.792;2023-02-01T19:09:55;3.78;;;0.93;;
75603;SDS011;64187;51.010;13.792;2023-02-01T19:14:54;4.75;;;0.70;;
75603;SDS011;64187;51.010;13.792;2023-02-01T19:19:52;2.38;;;0.40;;
75603;SDS011;64187;51.010;13.792;2023-02-01T19:24:51;1.38;;;0.40;;
75603;SDS011;64187;51.010;13.792;2023-02-01T19:29:52;1.83;;;0.47;;
75603;SDS011;64187;51.010;13.792;2023-02-01T19:34:50;1.38;;;0.50;;
75603;SDS011;64187;51.010;13.792;2023-02-01T19:39:49;3.40;;;0.80;;
75603;SDS011;64187;51.010;13.792;2023-02-01T19:44:48;0.93;;;0.43;;
75603;SDS011;64187;51.010;13.792;2023-02-01T19:49:47;0.90;;;0.50;;
75603;SDS011;64187;51.010;13.792;2023-02-01T19:54:47;2.83;;;0.50;;
75603;SDS011;64187;51.010;13.792;2023-02-01T19:59:46;2.05;;;0.50;;
75603;SDS011;64187;51.010;13.792;2023-02-01T20:04:45;2.15;;;0.60;;
75603;SDS011;64187;51.010;13.792;2023-02-01T20:09:44;2.10;;;0.60;;
75603;SDS011;64187;51.010;13.792;2023-02-01T20:14:43;4.45;;;1.05;;
75603;SDS011;64187;51.010;13.792;2023-02-01T20:19:44;4.80;;;0.88;;
75603;SDS011;64187;51.010;13.792;2023-02-01T20:24:43;3.00;;;0.73;;
75603;SDS011;64187;51.010;13.792;2023-02-01T20:29:42;3.33;;;0.70;;
75603;SDS011;64187;51.010;13.792;2023-02-01T20:34:41;4.25;;;0.82;;
75603;SDS011;64187;51.010;13.792;2023-02-01T20:39:40;2.50;;;0.70;;
75603;SDS011;64187;51.010;13.792;2023-02-01T20:44:39;1.05;;;0.45;;
75603;SDS011;64187;51.010;13.792;2023-02-01T20:49:38;2.70;;;0.90;;
75603;SDS011;64187;51.010;13.792;2023-02-01T20:54:38;4.53;;;1.10;;
75603;SDS011;64187;51.010;13.792;2023-02-01T20:59:37;4.93;;;1.08;;
75603;SDS011;64187;51.010;13.792;2023-02-01T21:04:36;1.25;;;0.43;;
75603;SDS011;64187;51.010;13.792;2023-02-01T21:09:35;1.85;;;0.70;;
75603;SDS011;64187;51.010;13.792;2023-02-01T21:14:38;4.45;;;0.65;;
75603;SDS011;64187;51.010;13.792;2023-02-01T21:19:36;5.80;;;0.85;;
75603;SDS011;64187;51.010;13.792;2023-02-01T21:24:41;2.00;;;0.82;;
75603;SDS011;64187;51.010;13.792;2023-02-01T21:29:40;4.25;;;0.70;;
75603;SDS011;64187;51.010;13.792;2023-02-01T21:34:39;3.53;;;0.98;;
75603;SDS011;64187;51.010;13.792;2023-02-01T21:39:37;2.97;;;0.70;;
75603;SDS011;64187;51.010;13.792;2023-02-01T21:44:36;2.95;;;0.82;;
75603;SDS011;64187;51.010;13.792;2023-02-01T21:49:35;2.50;;;0.88;;
75603;SDS011;64187;51.010;13.792;2023-02-01T21:54:34;1.52;;;0.73;;
75603;SDS011;64187;51.010;13.792;2023-02-01T21:59:33;1.98;;;0.82;;
75603;SDS011;64187;51.010;13.792;2023-02-01T22:04:33;2.17;;;0.95;;
75603;SDS011;64187;51.010;13.792;2023-02-01T22:09:32;4.43;;;1.13;;
75603;SDS011;64187;51.010;13.792;2023-02-01T22:14:31;2.10;;;0.77;;
75603;SDS011;64187;51.010;13.792;2023-02-01T22:19:30;2.00;;;1.17;;
75603;SDS011;64187;51.010;13.792;2023-02-01T22:24:29;2.45;;;1.10;;
75603;SDS011;64187;51.010;13.792;2023-02-01T22:29:28;2.72;;;1.23;;
75603;SDS011;64187;51.010;13.792;2023-02-01T22:34:27;3.10;;;1.38;;
75603;SDS011;64187;51.010;13.792;2023-02-01T22:39:26;4.07;;;1.10;;
75603;SDS011;64187;51.010;13.792;2023-02-01T22:44:25;2.00;;;1.00;;
75603;SDS011;64187;51.010;13.792;2023-02-01T22:49:24;4.97;;;1.23;;
75603;SDS011;64187;51.010;13.792;2023-02-01T22:54:22;3.45;;;1.45;;
75603;SDS011;64187;51.010;13.792;2023-02-01T22:59:21;4.88;;;1.55;;
75603;SDS011;64187;51.010;13.792;2023-02-01T23:04:20;7.43;;;1.30;;
75603;SDS011;64187;51.010;13.792;2023-02-01T23:09:20;5.22;;;1.38;;
75603;SDS011;64187;51.010;13.792;2023-02-01T23:14:22;2.28;;;1.00;;
75603;SDS011;64187;51.010;13.792;2023-02-01T23:19:21;1.27;;;0.60;;
75603;SDS011;64187;51.010;13.792;2023-02-01T23:24:19;3.28;;;0.70;;
75603;SDS011;64187;51.010;13.792;2023-02-01T23:29:18;2.60;;;0.88;;
75603;SDS011;64187;51.010;13.792;2023-02-01T23:34:17;1.95;;;0.82;;
75603;SDS011;64187;51.010;13.792;2023-02-01T23:39:16;6.70;;;1.10;;
75603;SDS011;64187;51.010;13.792;2023-02-01T23:44:14;4.35;;;1.50;;
75603;SDS011;64187;51.010;13.792;2023-02-01T23:49:14;3.50;;;0.80;;
75603;SDS011;64187;51.010;13.792;2023-02-01T23:54:13;2.42;;;0.70;;
